Kenyon, Rhode Island
Current Conditions -  °F | °C
As of 8:53 PM on Saturday 20 Dec 2014 (Local Time) from KWST Reporting Station
Overcast Overcast  
Wind Chill: 27°   Ceiling: 4700
Heat Index: 34°   Visibility: 10mi
Dew Point: 28°   Wind: 8mph
Humidity: 79%   Direction: 10°N
Pressure: 30.27"   Gusts: NA
Location:  41.45°N, 71.63°W
Report Text: KWST 210153Z AUTO 01007KT 10SM OVC047 01/M02 A3027 RMK AO2 SLP249 T00111022
Loading
Personal Weather Stations






























Interactive Weather Map New forecast layout! Learn more

10-Day Weather Forecast

Advertisements
Track Severe Weather on mobile